首页
METAR-TAF:

METAR-TAF

机场 :

Palm Beach International Airport

西棕榈滩, 佛罗里达州, 美国

纬度: 26-41-05N, 经度: 080-05-58W, 海拔: 5米

当前天气观测

该预报发布于1小时和5分钟前的08:53 UTC
风速3节,风向西转西南
温度 17°C
湿度 77%
气压 1012 hPa
能見度: 16.1公里
天空无云

METAR: KPBI 280853Z 25003KT 10SM CLR 17/13 A2988 RMK AO2 SLP117 T01670133 57010 $

时间: 04:58 (09:58 UTC)

预报

该预报发布于56分钟前的09:02 UTC
预报有效从28日的 09点(UTC)到 29日的 06点(UTC)
风速5节,风向西北
能見度: 10公里
少量云层高于4000英尺
多云层高于8000英尺
从 28日的 1500点(UTC)
风速8节,风向北转东北
能見度: 10公里
少量云层高于3000英尺
散云层高于3500英尺
从 29日的 0100点(UTC)
风速5节,风向北转东北
能見度: 10公里
散云层高于3000英尺
散云层高于5000英尺

TAF: KPBI 280902Z 2809/2906 32005KT P6SM FEW040 BKN080 FM281500 03008KT P6SM FEW030 SCT035 FM290100 03005KT P6SM SCT030 SCT050

超过4000个机场的气象观测和天气预报(METAR&TAF报告)。

可查询的气象台以黄色和红色小点在地图上表示。

将鼠标移到小点上方,可查看气象台名称。

然后点击查看天气观测和预报。

如需切换地图:点击带黑十字的绿色按钮放大地图;点击带横线的绿色按钮缩小地图;或者点击绿色箭头查看邻近地区的地图。


METAR-TAF: